Time;durP1;ratioP1;P1;durP2;ratioP2;P2;SDS_P1;SDS_P2;PMS_P1;PMS_P2;Temp;Humidity;BMP_temperature;BMP_pressure;BME280_temperature;BME280_humidity;BME280_pressure;Samples;Min_cycle;Max_cycle;Signal;HPM_P1;HPM_P2
2023/04/20 00:01:40;;;;;;;10.20;3.20;;;7.30;99.90;;;;;;4944029;28;20042;-60
2023/04/20 00:04:07;;;;;;;4.15;2.85;;;7.30;99.90;;;;;;4963477;28;20039;-61
2023/04/20 00:06:33;;;;;;;7.28;3.28;;;7.30;99.90;;;;;;4965085;28;20137;-60
2023/04/20 00:09:00;;;;;;;5.88;2.70;;;7.30;99.90;;;;;;4947936;28;20052;-61
2023/04/20 00:11:29;;;;;;;6.93;2.85;;;7.30;99.90;;;;;;4962541;28;20058;-61
2023/04/20 00:13:55;;;;;;;9.52;2.95;;;7.30;99.90;;;;;;4961712;28;20157;-60
2023/04/20 00:16:21;;;;;;;7.25;2.60;;;7.30;99.90;;;;;;4958050;28;20045;-61
2023/04/20 00:18:47;;;;;;;10.55;2.83;;;7.30;99.90;;;;;;4944467;28;20066;-59
2023/04/20 00:21:13;;;;;;;7.35;2.50;;;7.30;99.90;;;;;;4935018;28;20149;-60
2023/04/20 00:23:38;;;;;;;7.95;2.97;;;7.30;99.90;;;;;;4945573;28;20031;-61
2023/04/20 00:26:04;;;;;;;6.20;2.50;;;7.30;99.90;;;;;;4942801;28;20047;-60
2023/04/20 00:28:30;;;;;;;6.13;2.30;;;7.30;99.90;;;;;;4926648;28;20042;-60
2023/04/20 00:30:56;;;;;;;5.53;2.53;;;7.30;99.90;;;;;;4944472;28;20051;-60
2023/04/20 00:33:22;;;;;;;5.93;2.45;;;7.20;99.90;;;;;;4941979;28;20729;-61
2023/04/20 00:35:47;;;;;;;3.60;2.15;;;7.10;99.90;;;;;;4959234;28;20505;-61
2023/04/20 00:38:13;;;;;;;5.85;2.20;;;7.20;99.90;;;;;;4962235;28;20046;-61
2023/04/20 00:40:41;;;;;;;5.35;2.35;;;7.20;99.90;;;;;;4923551;28;20129;-61
2023/04/20 00:43:14;;;;;;;6.85;2.38;;;7.20;99.90;;;;;;4944248;28;20382;-60
2023/04/20 00:45:40;;;;;;;6.10;2.13;;;7.20;99.90;;;;;;4946119;28;20875;-62
2023/04/20 00:48:06;;;;;;;10.27;2.17;;;7.20;99.90;;;;;;4950423;28;20042;-60
2023/04/20 00:50:33;;;;;;;6.30;2.30;;;7.30;99.90;;;;;;4964671;28;20079;-60
2023/04/20 00:53:01;;;;;;;6.72;2.28;;;7.20;99.90;;;;;;4947448;28;20469;-61
2023/04/20 00:55:28;;;;;;;3.88;2.30;;;7.30;99.90;;;;;;4969913;28;20066;-59
2023/04/20 00:57:53;;;;;;;8.25;2.72;;;7.30;99.90;;;;;;4950297;28;20058;-59
2023/04/20 01:00:20;;;;;;;5.10;2.28;;;7.30;99.90;;;;;;4969442;28;20149;-61
2023/04/20 01:02:46;;;;;;;6.50;2.17;;;7.30;99.90;;;;;;4969583;28;20049;-60
2023/04/20 01:05:12;;;;;;;5.18;2.00;;;7.30;99.90;;;;;;4966915;28;20062;-59
2023/04/20 01:07:37;;;;;;;5.80;2.00;;;7.30;99.90;;;;;;4957664;28;20058;-60
2023/04/20 01:10:05;;;;;;;5.97;2.22;;;7.30;99.90;;;;;;4959456;28;20049;-61
2023/04/20 01:12:31;;;;;;;7.93;2.20;;;7.30;99.90;;;;;;4941906;28;20054;-60
2023/04/20 01:14:57;;;;;;;7.63;2.50;;;7.30;99.90;;;;;;4938308;28;20057;-61
2023/04/20 01:17:23;;;;;;;6.28;2.65;;;7.30;99.90;;;;;;4926301;28;20054;-61
2023/04/20 01:19:49;;;;;;;7.45;2.00;;;7.30;99.90;;;;;;4946632;28;20501;-60
2023/04/20 01:22:21;;;;;;;6.32;2.30;;;7.30;99.90;;;;;;4962979;28;20054;-60
2023/04/20 01:24:47;;;;;;;8.20;2.40;;;7.30;99.90;;;;;;4944581;28;20105;-61
2023/04/20 01:27:15;;;;;;;7.55;2.55;;;7.30;99.90;;;;;;4944565;28;20919;-60
2023/04/20 01:29:41;;;;;;;3.95;2.10;;;7.40;99.90;;;;;;4946575;28;20078;-61
2023/04/20 01:32:07;;;;;;;8.73;2.38;;;7.40;99.90;;;;;;4947231;28;20053;-61
2023/04/20 01:34:33;;;;;;;5.93;2.20;;;7.40;99.90;;;;;;4965451;28;20042;-59
2023/04/20 01:36:59;;;;;;;6.10;2.40;;;7.30;99.90;;;;;;4953719;28;20042;-59
2023/04/20 01:39:25;;;;;;;6.20;2.22;;;7.30;99.90;;;;;;4949024;28;20047;-61
2023/04/20 01:41:51;;;;;;;6.22;2.58;;;7.30;99.90;;;;;;4950348;28;20050;-61
2023/04/20 01:44:17;;;;;;;7.45;2.42;;;7.20;99.90;;;;;;4969141;28;20046;-60
2023/04/20 01:46:43;;;;;;;4.82;2.40;;;7.20;99.90;;;;;;4973053;28;20048;-61
2023/04/20 01:49:08;;;;;;;9.32;2.45;;;7.20;99.90;;;;;;4942844;28;20042;-59
2023/04/20 01:51:36;;;;;;;5.10;2.25;;;7.10;99.90;;;;;;4969529;28;20125;-60
2023/04/20 01:54:02;;;;;;;8.00;2.60;;;7.10;99.90;;;;;;4972234;28;20035;-59
2023/04/20 01:56:28;;;;;;;10.23;2.65;;;7.10;99.90;;;;;;4972696;28;20129;-60
2023/04/20 01:58:54;;;;;;;14.93;2.63;;;7.00;99.90;;;;;;4929975;28;20528;-60
2023/04/20 02:01:20;;;;;;;10.48;2.60;;;7.00;99.90;;;;;;4930033;28;20106;-60
2023/04/20 02:03:47;;;;;;;7.82;2.90;;;7.00;99.90;;;;;;4937817;28;20043;-61
2023/04/20 02:06:13;;;;;;;12.73;2.70;;;7.00;99.90;;;;;;4931397;28;20137;-59
2023/04/20 02:08:39;;;;;;;6.53;2.47;;;7.00;99.90;;;;;;4939861;28;20054;-61
2023/04/20 02:11:05;;;;;;;9.52;2.60;;;6.90;99.90;;;;;;4957656;28;20050;-60
2023/04/20 02:13:31;;;;;;;8.98;3.03;;;6.90;99.90;;;;;;4937103;28;20048;-60
2023/04/20 02:15:56;;;;;;;6.80;2.35;;;6.90;99.90;;;;;;4956862;28;20187;-60
2023/04/20 02:18:23;;;;;;;11.48;2.72;;;6.90;99.90;;;;;;4955530;28;20048;-59
2023/04/20 02:20:49;;;;;;;11.38;3.42;;;6.90;99.90;;;;;;4956779;28;20986;-59
2023/04/20 02:23:15;;;;;;;9.50;2.90;;;6.90;99.90;;;;;;4928014;28;20070;-60
2023/04/20 02:25:40;;;;;;;8.38;2.70;;;6.90;99.90;;;;;;4926130;28;20046;-59
2023/04/20 02:28:06;;;;;;;10.35;2.97;;;6.90;99.90;;;;;;4939422;28;20078;-59
2023/04/20 02:30:32;;;;;;;7.72;2.92;;;6.90;99.90;;;;;;4942635;28;20089;-60
2023/04/20 02:32:58;;;;;;;10.40;2.95;;;6.90;99.90;;;;;;4931720;28;20051;-59
2023/04/20 02:35:24;;;;;;;7.80;2.78;;;6.90;99.90;;;;;;4938902;28;20046;-59
2023/04/20 02:37:50;;;;;;;9.75;2.80;;;6.90;99.90;;;;;;4960620;28;20049;-60
2023/04/20 02:40:16;;;;;;;11.35;2.70;;;7.00;99.90;;;;;;4957281;28;20034;-59
2023/04/20 02:42:42;;;;;;;11.88;3.20;;;6.90;99.90;;;;;;4954358;28;20100;-60
2023/04/20 02:45:09;;;;;;;6.20;3.00;;;7.00;99.90;;;;;;4959451;28;20047;-61
2023/04/20 02:47:34;;;;;;;9.52;3.17;;;7.00;99.90;;;;;;4958767;28;20050;-60
2023/04/20 02:50:00;;;;;;;7.53;2.90;;;7.00;99.90;;;;;;4932176;28;20481;-60
2023/04/20 02:52:26;;;;;;;9.05;3.05;;;7.00;99.90;;;;;;4946304;28;20050;-61
2023/04/20 02:54:52;;;;;;;12.45;3.40;;;7.00;99.90;;;;;;4943412;28;20054;-61
2023/04/20 02:57:18;;;;;;;6.53;2.90;;;7.10;99.90;;;;;;4929464;28;20168;-60
2023/04/20 02:59:43;;;;;;;6.03;2.88;;;7.10;99.90;;;;;;4967480;28;20093;-59
2023/04/20 03:02:09;;;;;;;10.82;3.20;;;7.10;99.90;;;;;;4965607;28;20349;-59
2023/04/20 03:04:35;;;;;;;6.85;3.00;;;7.20;99.90;;;;;;4969123;28;20047;-60
2023/04/20 03:07:01;;;;;;;7.25;3.00;;;7.20;99.90;;;;;;4950900;28;20054;-59
2023/04/20 03:09:27;;;;;;;12.45;3.00;;;7.20;99.90;;;;;;4971737;28;22561;-60
2023/04/20 03:11:53;;;;;;;5.22;2.80;;;7.20;99.90;;;;;;4967236;28;20465;-61
2023/04/20 03:14:19;;;;;;;6.05;2.80;;;7.30;99.90;;;;;;4953620;28;20046;-60
2023/04/20 03:16:45;;;;;;;8.60;3.22;;;7.30;99.90;;;;;;4946613;28;20038;-59
2023/04/20 03:19:10;;;;;;;6.40;2.75;;;7.40;99.90;;;;;;4957309;28;20049;-61
2023/04/20 03:21:36;;;;;;;5.13;2.28;;;7.40;99.90;;;;;;4970088;28;20065;-61
2023/04/20 03:24:02;;;;;;;11.52;2.60;;;7.40;99.90;;;;;;4935812;28;20118;-60
2023/04/20 03:26:28;;;;;;;7.43;3.10;;;7.50;99.90;;;;;;4949854;28;20043;-59
2023/04/20 03:28:54;;;;;;;7.22;2.90;;;7.60;99.90;;;;;;4945802;28;20051;-59
2023/04/20 03:31:20;;;;;;;7.38;2.45;;;7.70;99.90;;;;;;4960903;28;20126;-61
2023/04/20 03:33:45;;;;;;;9.23;2.28;;;7.70;99.90;;;;;;4953472;28;20043;-60
2023/04/20 03:36:12;;;;;;;6.45;2.60;;;7.80;99.90;;;;;;4947569;28;20779;-60
2023/04/20 03:38:37;;;;;;;5.80;2.40;;;7.80;99.90;;;;;;4961330;28;20096;-61
2023/04/20 03:41:04;;;;;;;9.23;2.55;;;7.90;99.90;;;;;;4943794;28;20093;-59
2023/04/20 03:43:30;;;;;;;7.53;2.50;;;7.90;99.90;;;;;;4933290;28;20149;-61
2023/04/20 03:45:55;;;;;;;6.35;2.45;;;8.00;99.90;;;;;;4945400;28;20047;-61
2023/04/20 03:48:21;;;;;;;5.38;2.30;;;8.00;99.90;;;;;;4951677;28;20053;-59
2023/04/20 03:50:47;;;;;;;11.93;2.58;;;8.00;99.90;;;;;;4948552;28;20046;-60
2023/04/20 03:53:12;;;;;;;4.97;2.45;;;8.10;99.90;;;;;;4944448;28;20490;-60
2023/04/20 03:55:38;;;;;;;7.25;2.53;;;8.10;99.90;;;;;;4947852;28;20042;-60
2023/04/20 03:58:05;;;;;;;12.18;3.08;;;8.10;99.90;;;;;;4943882;28;20999;-60
2023/04/20 04:00:31;;;;;;;7.80;2.83;;;8.10;99.90;;;;;;4960984;28;20050;-60
2023/04/20 04:02:57;;;;;;;11.40;2.97;;;8.10;99.90;;;;;;4943027;28;20041;-61
2023/04/20 04:05:24;;;;;;;9.35;2.97;;;8.10;99.90;;;;;;4949617;28;20035;-59
2023/04/20 04:07:50;;;;;;;12.68;2.65;;;8.20;99.90;;;;;;4943066;28;20054;-61
2023/04/20 04:10:17;;;;;;;8.15;3.00;;;8.20;99.90;;;;;;4952195;28;20042;-61
2023/04/20 04:12:44;;;;;;;7.90;2.75;;;8.20;99.90;;;;;;4961886;28;20052;-61
2023/04/20 04:15:11;;;;;;;5.82;2.58;;;8.20;99.90;;;;;;4965251;28;20034;-62
2023/04/20 04:17:37;;;;;;;6.28;2.70;;;8.20;99.90;;;;;;4944593;28;20054;-61
2023/04/20 04:23:43;;;;;;;7.22;2.20;;;8.20;99.90;;;;;;4963211;28;20037;-61
2023/04/20 04:26:10;;;;;;;5.22;2.25;;;8.20;99.60;;;;;;4947152;28;20069;-61
2023/04/20 04:28:37;;;;;;;9.15;2.50;;;8.10;99.20;;;;;;4967051;28;20050;-60
2023/04/20 04:31:04;;;;;;;8.23;2.47;;;8.10;99.00;;;;;;4950350;28;20506;-60
2023/04/20 04:33:33;;;;;;;5.20;2.33;;;8.10;98.40;;;;;;4935238;28;20082;-60
2023/04/20 04:36:00;;;;;;;11.30;2.63;;;8.00;98.30;;;;;;4948412;28;20054;-60
2023/04/20 04:38:26;;;;;;;6.38;2.03;;;8.00;98.10;;;;;;4964133;28;20054;-61
2023/04/20 04:40:52;;;;;;;5.53;2.53;;;8.00;98.10;;;;;;4962637;28;20042;-59
2023/04/20 04:43:19;;;;;;;4.07;2.15;;;7.90;98.00;;;;;;4942467;28;20046;-61
2023/04/20 04:45:45;;;;;;;7.60;2.55;;;7.90;98.10;;;;;;4939799;28;20034;-59
2023/04/20 04:48:11;;;;;;;6.75;2.50;;;7.80;98.20;;;;;;4947222;28;20043;-60
2023/04/20 04:50:38;;;;;;;8.38;2.50;;;7.80;98.40;;;;;;4949322;28;20481;-60
2023/04/20 04:53:03;;;;;;;7.00;2.63;;;7.80;98.70;;;;;;4944821;28;20046;-61
2023/04/20 04:55:29;;;;;;;7.32;2.70;;;7.80;98.90;;;;;;4941466;28;20074;-60
2023/04/20 04:57:56;;;;;;;6.35;2.70;;;7.80;99.00;;;;;;4946421;28;20075;-60
2023/04/20 05:00:22;;;;;;;6.10;2.67;;;7.80;99.10;;;;;;4935302;28;20128;-61
2023/04/20 05:02:48;;;;;;;6.15;2.28;;;7.80;99.30;;;;;;4945856;28;20125;-60
2023/04/20 05:05:14;;;;;;;7.40;2.90;;;7.90;99.30;;;;;;4946540;28;20151;-60
2023/04/20 05:07:40;;;;;;;10.18;2.60;;;7.80;99.30;;;;;;4954337;28;20097;-60
2023/04/20 05:10:06;;;;;;;4.82;2.38;;;7.80;99.10;;;;;;4966405;28;20131;-61
2023/04/20 05:12:32;;;;;;;8.18;2.30;;;7.90;98.90;;;;;;4943330;28;20122;-59
2023/04/20 05:14:58;;;;;;;6.72;2.35;;;7.90;98.90;;;;;;4942293;28;20057;-59
2023/04/20 05:17:24;;;;;;;8.75;2.40;;;7.80;98.90;;;;;;4939094;28;20177;-60
2023/04/20 05:19:50;;;;;;;6.57;2.28;;;7.80;98.90;;;;;;4931704;28;20046;-61
2023/04/20 05:22:16;;;;;;;6.47;2.40;;;7.80;98.90;;;;;;4949638;28;20050;-61
2023/04/20 05:24:41;;;;;;;3.95;2.25;;;7.80;98.90;;;;;;4938253;28;20132;-60
2023/04/20 05:27:08;;;;;;;7.57;2.65;;;7.80;98.80;;;;;;4942624;28;20042;-59
2023/04/20 05:29:34;;;;;;;8.80;2.42;;;7.80;98.80;;;;;;4948179;28;20985;-61
2023/04/20 05:32:00;;;;;;;4.65;2.33;;;7.80;99.10;;;;;;4941777;28;20128;-61
2023/04/20 05:34:25;;;;;;;6.30;2.40;;;7.80;99.40;;;;;;4941078;28;20046;-60
2023/04/20 05:36:53;;;;;;;4.60;2.40;;;7.80;99.90;;;;;;4940699;28;20046;-60
2023/04/20 05:39:19;;;;;;;6.22;2.28;;;7.70;99.90;;;;;;4960738;28;20046;-60
2023/04/20 05:41:46;;;;;;;10.57;2.75;;;7.70;99.90;;;;;;4943085;28;20485;-61
2023/04/20 05:44:12;;;;;;;11.18;3.10;;;7.70;99.90;;;;;;4942797;28;20149;-61
2023/04/20 05:46:37;;;;;;;5.38;2.38;;;7.70;99.90;;;;;;4940085;28;20056;-61
2023/04/20 05:49:03;;;;;;;7.18;2.45;;;7.70;99.90;;;;;;4956317;28;20450;-61
2023/04/20 05:51:32;;;;;;;6.13;2.15;;;7.70;99.90;;;;;;4953721;28;20071;-59
2023/04/20 05:54:00;;;;;;;5.03;2.33;;;7.70;99.90;;;;;;4953293;28;20041;-76
2023/04/20 05:56:25;;;;;;;7.68;2.53;;;7.70;99.90;;;;;;4916988;28;20065;-75
2023/04/20 05:58:52;;;;;;;6.68;2.35;;;7.70;99.90;;;;;;4945008;28;21058;-72
2023/04/20 06:01:18;;;;;;;7.93;2.30;;;7.70;99.90;;;;;;4924921;28;20124;-70
2023/04/20 06:03:44;;;;;;;5.88;2.10;;;7.70;99.90;;;;;;4936677;28;20100;-72
2023/04/20 06:06:10;;;;;;;6.75;2.00;;;7.70;99.90;;;;;;4944492;28;20626;-76
2023/04/20 06:08:35;;;;;;;7.00;2.90;;;7.70;99.90;;;;;;4942530;28;20054;-70
2023/04/20 06:11:01;;;;;;;8.35;2.40;;;7.80;99.90;;;;;;4945768;28;20523;-75
2023/04/20 06:13:27;;;;;;;5.68;2.30;;;7.70;99.90;;;;;;4946848;28;20233;-74
2023/04/20 06:15:53;;;;;;;9.93;2.70;;;7.70;99.90;;;;;;4946545;28;20051;-75
2023/04/20 06:18:19;;;;;;;6.88;2.60;;;7.70;99.90;;;;;;4932315;28;20092;-71
2023/04/20 06:20:45;;;;;;;6.60;2.03;;;7.70;99.90;;;;;;4936568;28;20053;-75
2023/04/20 06:23:11;;;;;;;9.05;2.90;;;7.70;99.90;;;;;;4943255;28;20097;-75
2023/04/20 06:25:38;;;;;;;6.95;2.50;;;7.60;99.90;;;;;;4952230;28;20046;-74
2023/04/20 06:28:05;;;;;;;8.43;2.50;;;7.60;99.90;;;;;;4923485;28;20982;-71
2023/04/20 06:30:32;;;;;;;7.53;2.85;;;7.50;99.90;;;;;;4918183;28;20045;-72
2023/04/20 06:32:58;;;;;;;6.63;3.20;;;7.40;99.90;;;;;;4941151;28;20046;-73
2023/04/20 06:35:25;;;;;;;6.25;3.15;;;7.40;99.90;;;;;;4929930;28;20417;-71
2023/04/20 06:37:51;;;;;;;10.38;2.80;;;7.30;99.90;;;;;;4915180;28;20035;-73
2023/04/20 06:40:17;;;;;;;5.50;2.75;;;7.20;99.90;;;;;;4916647;28;20148;-70
2023/04/20 06:42:44;;;;;;;5.53;2.90;;;7.20;99.90;;;;;;4942646;28;20054;-73
2023/04/20 06:45:10;;;;;;;6.97;2.90;;;7.20;99.90;;;;;;4926796;28;20049;-72
2023/04/20 06:47:36;;;;;;;12.10;3.08;;;7.10;99.90;;;;;;4923783;28;20484;-75
2023/04/20 06:50:08;;;;;;;9.63;3.53;;;7.00;99.90;;;;;;4944084;28;20074;-76
2023/04/20 06:52:35;;;;;;;7.40;3.00;;;7.00;99.90;;;;;;4936902;28;20401;-75
2023/04/20 06:55:01;;;;;;;6.47;3.58;;;6.90;99.90;;;;;;4944845;28;20057;-77
2023/04/20 06:57:27;;;;;;;4.07;3.03;;;6.80;99.90;;;;;;4936369;28;20058;-74
2023/04/20 06:59:52;;;;;;;7.90;3.20;;;6.80;99.90;;;;;;4934510;28;20085;-75
2023/04/20 07:02:18;;;;;;;6.72;3.80;;;6.70;99.90;;;;;;4926500;28;20038;-72
2023/04/20 07:04:44;;;;;;;7.05;2.90;;;6.70;99.90;;;;;;4934340;28;20121;-76
2023/04/20 07:07:10;;;;;;;8.70;3.22;;;6.60;99.90;;;;;;4957641;28;20086;-72
2023/04/20 07:09:35;;;;;;;8.63;3.47;;;6.60;99.90;;;;;;4930292;28;20062;-74
2023/04/20 07:12:01;;;;;;;5.43;3.30;;;6.60;99.90;;;;;;4927316;28;20043;-75
2023/04/20 07:14:27;;;;;;;7.68;3.40;;;6.60;99.90;;;;;;4950326;28;20130;-73
2023/04/20 07:16:53;;;;;;;7.35;3.40;;;6.60;99.90;;;;;;4926278;28;20133;-73
2023/04/20 07:19:19;;;;;;;6.70;3.45;;;6.60;99.90;;;;;;4947969;28;20039;-74
2023/04/20 07:21:45;;;;;;;12.23;4.18;;;6.60;99.90;;;;;;4919697;28;20389;-72
2023/04/20 07:24:11;;;;;;;10.57;3.78;;;6.60;99.90;;;;;;4944365;28;20060;-73
2023/04/20 07:26:37;;;;;;;8.25;3.60;;;6.60;99.90;;;;;;4940978;28;20053;-73
2023/04/20 07:29:03;;;;;;;5.13;3.30;;;6.70;99.90;;;;;;4943630;28;20203;-73
2023/04/20 07:31:29;;;;;;;6.72;3.78;;;6.70;99.90;;;;;;4930530;28;20051;-72
2023/04/20 07:33:55;;;;;;;9.43;4.03;;;6.60;99.90;;;;;;4957169;28;20043;-73
2023/04/20 07:36:21;;;;;;;7.72;3.47;;;6.80;99.90;;;;;;4940677;28;20134;-73
2023/04/20 07:38:48;;;;;;;10.15;3.60;;;6.80;99.90;;;;;;4931854;28;20050;-72
2023/04/20 07:41:14;;;;;;;9.38;3.65;;;6.80;99.90;;;;;;4940517;28;20617;-71
2023/04/20 07:43:40;;;;;;;6.35;3.80;;;6.80;99.90;;;;;;4933352;28;20105;-73
2023/04/20 07:46:06;;;;;;;10.07;3.30;;;6.80;99.90;;;;;;4909912;28;21284;-72
2023/04/20 07:48:35;;;;;;;7.35;3.85;;;6.90;99.90;;;;;;4943508;28;20050;-72
2023/04/20 07:51:01;;;;;;;6.85;3.17;;;7.00;99.90;;;;;;4945511;28;21636;-72
2023/04/20 07:53:28;;;;;;;6.82;3.50;;;7.00;99.90;;;;;;4954814;28;20053;-72
2023/04/20 07:55:54;;;;;;;7.30;3.63;;;7.00;99.90;;;;;;4934221;28;20047;-72
2023/04/20 07:58:20;;;;;;;9.00;3.88;;;7.10;99.90;;;;;;4918175;28;20060;-71
2023/04/20 08:00:46;;;;;;;4.85;3.10;;;7.10;99.90;;;;;;4936201;28;20497;-72
2023/04/20 08:03:12;;;;;;;7.35;3.60;;;7.20;99.90;;;;;;4940290;28;20055;-72
2023/04/20 08:05:39;;;;;;;5.72;3.20;;;7.20;99.90;;;;;;4940912;28;20054;-72
2023/04/20 08:08:05;;;;;;;12.35;3.75;;;7.20;99.90;;;;;;4939475;28;20071;-73
2023/04/20 08:10:31;;;;;;;11.60;4.05;;;7.10;99.90;;;;;;4941932;28;20065;-72
2023/04/20 08:12:58;;;;;;;6.32;3.70;;;7.10;99.90;;;;;;4930333;28;20173;-73
2023/04/20 08:15:23;;;;;;;7.43;3.60;;;7.10;99.90;;;;;;4924004;28;20042;-72
2023/04/20 08:17:49;;;;;;;6.13;3.50;;;7.10;99.90;;;;;;4931705;28;20043;-71
2023/04/20 08:20:15;;;;;;;6.28;3.40;;;7.10;99.90;;;;;;4927685;28;20074;-72
2023/04/20 08:22:41;;;;;;;7.57;3.58;;;7.10;99.90;;;;;;4926525;28;20133;-72
2023/04/20 08:25:07;;;;;;;11.93;3.80;;;7.10;99.90;;;;;;4944146;28;20165;-72
2023/04/20 08:27:33;;;;;;;6.97;3.63;;;7.20;99.90;;;;;;4936199;28;20058;-72
2023/04/20 08:29:59;;;;;;;8.15;4.10;;;7.30;99.90;;;;;;4944359;28;20042;-73
2023/04/20 08:32:25;;;;;;;6.97;3.80;;;7.30;99.90;;;;;;4929885;28;20039;-73
2023/04/20 08:34:52;;;;;;;9.30;3.72;;;7.20;99.90;;;;;;4944914;28;20054;-72
2023/04/20 08:37:19;;;;;;;11.57;4.13;;;7.20;99.90;;;;;;4945267;28;20054;-73
2023/04/20 08:39:45;;;;;;;8.48;3.67;;;7.20;99.90;;;;;;4915359;28;20046;-72
2023/04/20 08:42:11;;;;;;;10.02;3.72;;;7.20;99.90;;;;;;4917299;28;20351;-72
2023/04/20 08:44:36;;;;;;;7.75;3.65;;;7.20;99.90;;;;;;4930465;28;20061;-72
2023/04/20 08:47:02;;;;;;;10.00;3.58;;;7.20;99.90;;;;;;4943560;28;20046;-72
2023/04/20 08:49:29;;;;;;;6.75;3.70;;;7.10;99.90;;;;;;4944309;28;20497;-73
2023/04/20 08:51:55;;;;;;;7.85;3.90;;;7.10;99.90;;;;;;4930672;28;20480;-72
2023/04/20 08:54:21;;;;;;;6.60;4.25;;;7.10;99.90;;;;;;4924001;28;20046;-71
2023/04/20 08:56:47;;;;;;;10.48;4.35;;;7.00;99.90;;;;;;4930049;28;20477;-72
2023/04/20 08:59:15;;;;;;;9.25;4.03;;;7.00;99.90;;;;;;4939630;28;20050;-72
2023/04/20 09:01:42;;;;;;;8.68;4.03;;;7.10;99.90;;;;;;4949934;28;20052;-73
2023/04/20 09:04:23;;;;;;;8.02;3.90;;;7.20;99.90;;;;;;4941653;28;20121;-72
2023/04/20 09:06:51;;;;;;;7.22;4.20;;;7.30;99.90;;;;;;4930278;28;20209;-74
2023/04/20 09:09:18;;;;;;;7.40;4.05;;;7.40;99.90;;;;;;4947720;28;20405;-72
2023/04/20 09:11:44;;;;;;;9.85;4.25;;;7.50;99.90;;;;;;4932804;28;20133;-72
2023/04/20 09:14:16;;;;;;;9.43;4.18;;;7.60;99.90;;;;;;4945773;28;20054;-72
2023/04/20 09:16:55;;;;;;;8.30;4.43;;;7.70;99.90;;;;;;4948086;28;20136;-72
2023/04/20 09:19:26;;;;;;;7.28;4.22;;;7.90;99.90;;;;;;4944593;28;20050;-72
2023/04/20 09:21:54;;;;;;;10.45;4.28;;;7.90;99.90;;;;;;4950803;28;20099;-73
2023/04/20 09:24:22;;;;;;;9.90;4.38;;;8.00;99.90;;;;;;4944070;28;20088;-73
2023/04/20 09:26:48;;;;;;;7.38;4.40;;;8.00;99.90;;;;;;4928677;28;20050;-72
2023/04/20 09:29:18;;;;;;;8.30;4.22;;;8.00;99.90;;;;;;4947841;28;20042;-74
2023/04/20 09:31:44;;;;;;;10.10;4.40;;;8.00;99.90;;;;;;4935733;28;20082;-73
2023/04/20 09:34:11;;;;;;;5.55;4.18;;;8.00;99.90;;;;;;4943805;28;20129;-74
2023/04/20 09:36:41;;;;;;;9.50;4.53;;;8.10;99.90;;;;;;4937812;28;20109;-74
2023/04/20 09:39:18;;;;;;;9.27;4.25;;;8.10;99.90;;;;;;4946780;28;20168;-74
2023/04/20 09:41:45;;;;;;;8.90;4.43;;;8.10;99.90;;;;;;4933239;28;20129;-75
2023/04/20 09:44:12;;;;;;;6.72;4.15;;;8.20;99.90;;;;;;4937203;28;20039;-75
2023/04/20 09:46:39;;;;;;;7.80;4.43;;;8.20;99.90;;;;;;4933857;28;20169;-73
2023/04/20 09:49:13;;;;;;;9.35;4.60;;;8.20;99.90;;;;;;4932033;28;20050;-75
2023/04/20 09:51:43;;;;;;;6.45;4.10;;;8.30;99.90;;;;;;4944708;28;20061;-74
2023/04/20 09:54:11;;;;;;;7.97;4.45;;;8.30;99.90;;;;;;4937526;28;20975;-73
2023/04/20 09:56:37;;;;;;;10.90;4.38;;;8.40;99.90;;;;;;4944051;28;20177;-75
2023/04/20 09:59:03;;;;;;;8.20;4.28;;;8.40;99.90;;;;;;4935570;28;20054;-74
2023/04/20 10:01:34;;;;;;;7.72;4.70;;;8.50;99.90;;;;;;4931310;28;20042;-74
2023/04/20 10:04:02;;;;;;;7.65;4.72;;;8.50;99.90;;;;;;4945018;28;20042;-74
2023/04/20 10:06:30;;;;;;;10.93;4.70;;;8.50;99.90;;;;;;4943061;28;20151;-73
2023/04/20 10:08:57;;;;;;;8.45;4.63;;;8.60;99.90;;;;;;4943952;28;20137;-75
2023/04/20 10:11:32;;;;;;;6.18;4.15;;;8.70;99.90;;;;;;4943429;28;20044;-74
2023/04/20 10:14:00;;;;;;;9.63;4.75;;;8.70;99.90;;;;;;4935028;28;20054;-75
2023/04/20 10:16:26;;;;;;;9.52;4.47;;;8.80;99.90;;;;;;4947437;28;20537;-75
2023/04/20 10:19:03;;;;;;;11.18;5.00;;;8.80;99.90;;;;;;4959669;28;20050;-75
2023/04/20 10:21:43;;;;;;;13.68;5.28;;;8.90;99.90;;;;;;4947673;28;20050;-74
2023/04/20 10:24:08;;;;;;;9.02;4.93;;;9.00;99.90;;;;;;4936156;28;20085;-75
2023/04/20 10:26:39;;;;;;;8.10;4.55;;;9.00;99.90;;;;;;4930155;28;20126;-73
2023/04/20 10:29:05;;;;;;;8.98;4.65;;;9.00;99.90;;;;;;4941811;28;20509;-75
2023/04/20 10:31:39;;;;;;;10.30;5.15;;;9.00;99.90;;;;;;4944041;28;20058;-73
2023/04/20 10:34:06;;;;;;;11.32;5.43;;;8.90;99.90;;;;;;4939389;28;20050;-75
2023/04/20 10:36:37;;;;;;;8.75;4.97;;;8.90;99.90;;;;;;4945203;28;20538;-74
2023/04/20 10:39:14;;;;;;;8.75;4.93;;;8.70;99.90;;;;;;4929335;28;20137;-71
2023/04/20 10:42:02;;;;;;;9.82;4.88;;;8.70;99.90;;;;;;4932069;28;20042;-77
2023/04/20 10:44:28;;;;;;;8.45;5.43;;;8.60;99.90;;;;;;4950819;28;20613;-74
2023/04/20 10:46:54;;;;;;;10.40;5.10;;;8.60;99.90;;;;;;4927924;28;20050;-74
2023/04/20 10:49:29;;;;;;;15.40;5.63;;;8.50;99.90;;;;;;4943916;28;20078;-73
2023/04/20 10:51:56;;;;;;;9.98;5.40;;;8.50;99.90;;;;;;4956376;28;20595;-73
2023/04/20 10:54:21;;;;;;;10.10;5.30;;;8.50;99.90;;;;;;4946456;28;20156;-74
2023/04/20 10:56:52;;;;;;;8.68;4.93;;;8.50;99.90;;;;;;4913677;28;20062;-72
2023/04/20 10:59:21;;;;;;;9.63;5.05;;;8.40;99.90;;;;;;4944796;28;20733;-75
2023/04/20 11:01:48;;;;;;;8.02;5.32;;;8.40;99.90;;;;;;4945235;28;20042;-75
2023/04/20 11:04:14;;;;;;;11.50;5.75;;;8.40;99.90;;;;;;4944127;28;20192;-76
2023/04/20 11:06:40;;;;;;;9.10;5.22;;;8.50;99.90;;;;;;4933811;28;20104;-76
2023/04/20 11:09:27;;;;;;;9.48;5.13;;;8.50;99.90;;;;;;4934185;28;20054;-74
2023/04/20 11:12:05;;;;;;;8.70;5.15;;;8.70;99.90;;;;;;4939901;28;20052;-74
2023/04/20 11:14:33;;;;;;;12.35;6.03;;;8.70;99.90;;;;;;4951563;28;20138;-74
2023/04/20 11:16:59;;;;;;;8.70;4.90;;;8.80;99.90;;;;;;4953815;28;20064;-75
2023/04/20 11:19:33;;;;;;;10.02;5.95;;;8.80;99.90;;;;;;4932645;28;20049;-73
2023/04/20 11:21:59;;;;;;;9.48;5.35;;;8.80;99.90;;;;;;4952899;28;20046;-72
2023/04/20 11:24:30;;;;;;;7.90;5.93;;;8.70;99.90;;;;;;4954915;28;20144;-72
2023/04/20 11:26:57;;;;;;;7.68;4.95;;;8.70;99.90;;;;;;4951932;28;20135;-73
2023/04/20 11:29:32;;;;;;;11.05;5.78;;;8.70;99.90;;;;;;4912849;28;20051;-74
2023/04/20 11:32:03;;;;;;;9.50;5.72;;;8.70;99.90;;;;;;4931566;28;20196;-72
2023/04/20 11:34:29;;;;;;;11.32;5.90;;;8.70;99.90;;;;;;4941192;28;20821;-74
2023/04/20 11:36:59;;;;;;;10.88;6.05;;;8.80;99.90;;;;;;4944199;28;20047;-73
2023/04/20 11:39:28;;;;;;;10.60;5.78;;;8.80;99.90;;;;;;4946184;28;20073;-71
2023/04/20 11:41:56;;;;;;;9.65;5.45;;;8.80;99.90;;;;;;4933553;28;20951;-72
2023/04/20 11:44:23;;;;;;;9.25;5.68;;;8.80;99.90;;;;;;4951559;28;20136;-73
2023/04/20 11:46:49;;;;;;;9.82;6.38;;;8.80;99.90;;;;;;4947503;28;20053;-72
2023/04/20 11:49:20;;;;;;;13.20;6.25;;;8.80;99.90;;;;;;4922643;28;20129;-72
2023/04/20 11:51:46;;;;;;;9.90;6.45;;;8.90;99.90;;;;;;4931602;28;20509;-73
2023/04/20 11:54:12;;;;;;;10.13;6.72;;;8.90;99.90;;;;;;4940116;28;20046;-75
2023/04/20 11:56:40;;;;;;;11.25;6.22;;;8.90;99.90;;;;;;4929431;28;20517;-73
2023/04/20 11:59:10;;;;;;;10.00;6.18;;;8.90;99.90;;;;;;4944340;28;20144;-73
2023/04/20 12:01:36;;;;;;;12.38;6.38;;;8.90;99.90;;;;;;4941095;28;20046;-72
2023/04/20 12:04:03;;;;;;;11.65;6.82;;;8.90;99.90;;;;;;4911970;28;20034;-71
2023/04/20 12:06:30;;;;;;;14.00;7.35;;;9.00;99.90;;;;;;4925984;28;20053;-72
2023/04/20 12:08:56;;;;;;;15.35;7.35;;;9.10;99.90;;;;;;4928954;28;20050;-71
2023/04/20 12:11:22;;;;;;;11.75;7.57;;;9.20;99.90;;;;;;4931010;28;20049;-71
2023/04/20 12:13:48;;;;;;;10.27;7.10;;;9.50;99.90;;;;;;4938762;28;20073;-72
2023/04/20 12:16:14;;;;;;;14.65;6.80;;;10.00;99.90;;;;;;4901694;28;20055;-73
2023/04/20 12:18:40;;;;;;;12.57;7.07;;;10.30;99.90;;;;;;4940774;28;20212;-72
2023/04/20 12:21:06;;;;;;;10.07;7.07;;;10.50;99.90;;;;;;4923577;28;20077;-73
2023/04/20 12:23:33;;;;;;;11.70;7.13;;;10.50;99.90;;;;;;4933533;28;20085;-72
2023/04/20 12:25:59;;;;;;;12.68;7.60;;;10.50;99.90;;;;;;4942248;28;20070;-73
2023/04/20 12:28:24;;;;;;;13.10;7.28;;;10.40;99.90;;;;;;4913774;28;20521;-74
2023/04/20 12:30:50;;;;;;;9.70;6.88;;;10.40;99.90;;;;;;4948311;28;20046;-77
2023/04/20 12:33:16;;;;;;;9.90;7.05;;;10.40;99.90;;;;;;4932157;28;20823;-74
2023/04/20 12:35:43;;;;;;;13.32;7.18;;;10.40;99.90;;;;;;4931598;28;20046;-75
2023/04/20 12:38:10;;;;;;;9.13;6.78;;;10.60;99.90;;;;;;4950841;28;20050;-72
2023/04/20 12:40:35;;;;;;;10.90;7.22;;;10.80;99.90;;;;;;4922961;28;20397;-72
2023/04/20 12:43:02;;;;;;;12.75;7.22;;;10.80;99.90;;;;;;4942672;28;20104;-76
2023/04/20 12:45:27;;;;;;;9.57;7.25;;;10.80;99.90;;;;;;4944128;28;20065;-73
2023/04/20 12:47:53;;;;;;;12.27;7.20;;;10.80;99.90;;;;;;4914929;28;20054;-75
2023/04/20 12:50:19;;;;;;;11.68;6.65;;;10.90;99.90;;;;;;4932664;28;20058;-72
2023/04/20 12:52:45;;;;;;;9.63;6.72;;;10.90;99.90;;;;;;4946505;28;20046;-75
2023/04/20 12:55:11;;;;;;;10.73;6.68;;;10.90;99.90;;;;;;4936965;28;20062;-72